sensor_id;sensor_type;location;lat;lon;timestamp;P1;durP1;ratioP1;P2;durP2;ratioP2
7440;SDS011;29616;51.950;8.572;2022-10-23T00:01:49;516.30;;;247.30;;
7440;SDS011;29616;51.950;8.572;2022-10-23T00:04:19;507.73;;;243.90;;
7440;SDS011;29616;51.950;8.572;2022-10-23T00:06:54;451.02;;;209.05;;
7440;SDS011;29616;51.950;8.572;2022-10-23T00:09:22;477.20;;;227.27;;
7440;SDS011;29616;51.950;8.572;2022-10-23T00:11:52;536.38;;;257.35;;
7440;SDS011;29616;51.950;8.572;2022-10-23T00:14:23;561.72;;;270.80;;
7440;SDS011;29616;51.950;8.572;2022-10-23T00:16:53;556.70;;;266.52;;
7440;SDS011;29616;51.950;8.572;2022-10-23T00:19:22;545.85;;;266.05;;
7440;SDS011;29616;51.950;8.572;2022-10-23T00:21:51;520.03;;;246.60;;
7440;SDS011;29616;51.950;8.572;2022-10-23T00:24:20;502.05;;;239.38;;
7440;SDS011;29616;51.950;8.572;2022-10-23T00:26:49;488.00;;;231.43;;
7440;SDS011;29616;51.950;8.572;2022-10-23T00:29:18;496.98;;;239.63;;
7440;SDS011;29616;51.950;8.572;2022-10-23T00:31:48;504.98;;;242.48;;
7440;SDS011;29616;51.950;8.572;2022-10-23T00:34:19;513.78;;;246.52;;
7440;SDS011;29616;51.950;8.572;2022-10-23T00:36:48;522.70;;;255.30;;
7440;SDS011;29616;51.950;8.572;2022-10-23T00:39:18;530.22;;;259.45;;
7440;SDS011;29616;51.950;8.572;2022-10-23T00:41:47;513.42;;;246.93;;
7440;SDS011;29616;51.950;8.572;2022-10-23T00:47:37;538.58;;;266.52;;
7440;SDS011;29616;51.950;8.572;2022-10-23T00:50:07;551.67;;;269.15;;
7440;SDS011;29616;51.950;8.572;2022-10-23T00:52:38;581.30;;;282.33;;
7440;SDS011;29616;51.950;8.572;2022-10-23T00:55:11;452.40;;;218.73;;
7440;SDS011;29616;51.950;8.572;2022-10-23T00:57:42;564.17;;;277.95;;
7440;SDS011;29616;51.950;8.572;2022-10-23T01:00:15;559.90;;;278.63;;
7440;SDS011;29616;51.950;8.572;2022-10-23T01:02:47;572.53;;;284.45;;
7440;SDS011;29616;51.950;8.572;2022-10-23T01:05:21;516.13;;;253.25;;
7440;SDS011;29616;51.950;8.572;2022-10-23T01:08:00;534.15;;;266.20;;
7440;SDS011;29616;51.950;8.572;2022-10-23T01:10:35;493.67;;;242.13;;
7440;SDS011;29616;51.950;8.572;2022-10-23T01:13:14;487.20;;;235.40;;
7440;SDS011;29616;51.950;8.572;2022-10-23T01:15:51;502.58;;;247.93;;
7440;SDS011;29616;51.950;8.572;2022-10-23T01:18:30;511.05;;;256.05;;
7440;SDS011;29616;51.950;8.572;2022-10-23T01:21:11;526.90;;;266.33;;
7440;SDS011;29616;51.950;8.572;2022-10-23T01:24:00;514.78;;;256.83;;
7440;SDS011;29616;51.950;8.572;2022-10-23T01:26:54;529.75;;;268.95;;
7440;SDS011;29616;51.950;8.572;2022-10-23T01:29:40;531.35;;;266.83;;
7440;SDS011;29616;51.950;8.572;2022-10-23T01:32:14;512.15;;;257.38;;
7440;SDS011;29616;51.950;8.572;2022-10-23T01:34:51;529.92;;;262.35;;
7440;SDS011;29616;51.950;8.572;2022-10-23T01:37:28;531.42;;;263.42;;
7440;SDS011;29616;51.950;8.572;2022-10-23T01:40:08;513.13;;;255.65;;
7440;SDS011;29616;51.950;8.572;2022-10-23T01:42:47;507.98;;;250.38;;
7440;SDS011;29616;51.950;8.572;2022-10-23T01:45:26;513.97;;;254.43;;
7440;SDS011;29616;51.950;8.572;2022-10-23T01:48:05;403.80;;;189.45;;
7440;SDS011;29616;51.950;8.572;2022-10-23T01:50:36;437.13;;;207.88;;
7440;SDS011;29616;51.950;8.572;2022-10-23T01:53:08;527.38;;;266.70;;
7440;SDS011;29616;51.950;8.572;2022-10-23T01:55:38;516.20;;;257.30;;
7440;SDS011;29616;51.950;8.572;2022-10-23T01:58:18;483.88;;;241.40;;
7440;SDS011;29616;51.950;8.572;2022-10-23T02:00:48;513.77;;;255.73;;
7440;SDS011;29616;51.950;8.572;2022-10-23T02:03:19;531.97;;;266.57;;
7440;SDS011;29616;51.950;8.572;2022-10-23T02:05:50;496.80;;;245.77;;
7440;SDS011;29616;51.950;8.572;2022-10-23T02:08:20;475.85;;;233.27;;
7440;SDS011;29616;51.950;8.572;2022-10-23T02:10:51;486.67;;;241.55;;
7440;SDS011;29616;51.950;8.572;2022-10-23T02:13:32;482.33;;;239.25;;
7440;SDS011;29616;51.950;8.572;2022-10-23T02:16:14;491.15;;;247.50;;
7440;SDS011;29616;51.950;8.572;2022-10-23T02:18:54;495.85;;;246.73;;
7440;SDS011;29616;51.950;8.572;2022-10-23T02:21:31;481.15;;;240.52;;
7440;SDS011;29616;51.950;8.572;2022-10-23T02:24:06;480.30;;;237.45;;
7440;SDS011;29616;51.950;8.572;2022-10-23T02:26:45;448.58;;;217.35;;
7440;SDS011;29616;51.950;8.572;2022-10-23T02:29:26;463.75;;;230.27;;
7440;SDS011;29616;51.950;8.572;2022-10-23T02:31:58;467.35;;;230.85;;
7440;SDS011;29616;51.950;8.572;2022-10-23T02:34:28;485.15;;;243.98;;
7440;SDS011;29616;51.950;8.572;2022-10-23T02:36:57;479.00;;;240.65;;
7440;SDS011;29616;51.950;8.572;2022-10-23T02:39:25;482.83;;;239.55;;
7440;SDS011;29616;51.950;8.572;2022-10-23T02:41:55;487.50;;;241.20;;
7440;SDS011;29616;51.950;8.572;2022-10-23T02:44:42;489.80;;;243.50;;
7440;SDS011;29616;51.950;8.572;2022-10-23T02:47:28;493.67;;;249.38;;
7440;SDS011;29616;51.950;8.572;2022-10-23T02:50:09;501.88;;;250.60;;
7440;SDS011;29616;51.950;8.572;2022-10-23T02:52:49;492.48;;;245.90;;
7440;SDS011;29616;51.950;8.572;2022-10-23T02:55:30;492.05;;;249.68;;
7440;SDS011;29616;51.950;8.572;2022-10-23T02:58:15;489.35;;;247.10;;
7440;SDS011;29616;51.950;8.572;2022-10-23T03:00:55;493.67;;;250.13;;
7440;SDS011;29616;51.950;8.572;2022-10-23T03:03:34;418.20;;;210.95;;
7440;SDS011;29616;51.950;8.572;2022-10-23T03:06:08;427.58;;;217.38;;
7440;SDS011;29616;51.950;8.572;2022-10-23T03:08:42;481.67;;;240.55;;
7440;SDS011;29616;51.950;8.572;2022-10-23T03:11:13;488.95;;;248.43;;
7440;SDS011;29616;51.950;8.572;2022-10-23T03:13:42;499.08;;;251.00;;
7440;SDS011;29616;51.950;8.572;2022-10-23T03:16:12;498.92;;;253.85;;
7440;SDS011;29616;51.950;8.572;2022-10-23T03:18:48;495.05;;;250.35;;
7440;SDS011;29616;51.950;8.572;2022-10-23T03:21:18;509.48;;;258.52;;
7440;SDS011;29616;51.950;8.572;2022-10-23T03:23:51;501.10;;;255.52;;
7440;SDS011;29616;51.950;8.572;2022-10-23T03:26:33;508.95;;;258.58;;
7440;SDS011;29616;51.950;8.572;2022-10-23T03:29:02;497.00;;;250.80;;
7440;SDS011;29616;51.950;8.572;2022-10-23T03:31:36;495.35;;;251.00;;
7440;SDS011;29616;51.950;8.572;2022-10-23T03:34:06;501.45;;;258.00;;
7440;SDS011;29616;51.950;8.572;2022-10-23T03:36:38;504.23;;;256.20;;
7440;SDS011;29616;51.950;8.572;2022-10-23T03:39:09;504.65;;;254.05;;
7440;SDS011;29616;51.950;8.572;2022-10-23T03:41:40;497.73;;;249.15;;
7440;SDS011;29616;51.950;8.572;2022-10-23T03:44:10;499.63;;;254.63;;
7440;SDS011;29616;51.950;8.572;2022-10-23T03:46:44;497.80;;;254.43;;
7440;SDS011;29616;51.950;8.572;2022-10-23T03:49:12;500.50;;;253.25;;
7440;SDS011;29616;51.950;8.572;2022-10-23T03:51:42;499.23;;;252.95;;
7440;SDS011;29616;51.950;8.572;2022-10-23T03:54:19;485.05;;;243.32;;
7440;SDS011;29616;51.950;8.572;2022-10-23T03:56:49;487.45;;;247.18;;
7440;SDS011;29616;51.950;8.572;2022-10-23T03:59:24;488.67;;;245.10;;
7440;SDS011;29616;51.950;8.572;2022-10-23T04:01:55;487.63;;;244.57;;
7440;SDS011;29616;51.950;8.572;2022-10-23T04:04:25;472.67;;;233.97;;
7440;SDS011;29616;51.950;8.572;2022-10-23T04:06:53;436.38;;;219.50;;
7440;SDS011;29616;51.950;8.572;2022-10-23T04:09:23;436.75;;;214.27;;
7440;SDS011;29616;51.950;8.572;2022-10-23T04:11:54;446.70;;;218.30;;
7440;SDS011;29616;51.950;8.572;2022-10-23T04:14:26;457.45;;;221.43;;
7440;SDS011;29616;51.950;8.572;2022-10-23T04:16:56;431.30;;;208.07;;
7440;SDS011;29616;51.950;8.572;2022-10-23T04:19:26;413.15;;;200.50;;
7440;SDS011;29616;51.950;8.572;2022-10-23T04:21:55;429.48;;;206.73;;
7440;SDS011;29616;51.950;8.572;2022-10-23T04:24:26;461.17;;;225.30;;
7440;SDS011;29616;51.950;8.572;2022-10-23T04:26:54;472.83;;;230.95;;
7440;SDS011;29616;51.950;8.572;2022-10-23T04:29:27;465.88;;;231.15;;
7440;SDS011;29616;51.950;8.572;2022-10-23T04:31:59;314.33;;;154.93;;
7440;SDS011;29616;51.950;8.572;2022-10-23T04:34:29;509.13;;;256.00;;
7440;SDS011;29616;51.950;8.572;2022-10-23T04:36:58;477.60;;;233.20;;
7440;SDS011;29616;51.950;8.572;2022-10-23T04:39:28;501.33;;;250.32;;
7440;SDS011;29616;51.950;8.572;2022-10-23T04:41:56;504.08;;;252.15;;
7440;SDS011;29616;51.950;8.572;2022-10-23T04:44:26;501.33;;;250.20;;
7440;SDS011;29616;51.950;8.572;2022-10-23T04:46:55;500.83;;;249.82;;
7440;SDS011;29616;51.950;8.572;2022-10-23T04:49:27;484.50;;;237.90;;
7440;SDS011;29616;51.950;8.572;2022-10-23T04:52:23;474.05;;;232.93;;
7440;SDS011;29616;51.950;8.572;2022-10-23T04:55:11;477.67;;;232.32;;
7440;SDS011;29616;51.950;8.572;2022-10-23T04:57:48;491.30;;;244.43;;
7440;SDS011;29616;51.950;8.572;2022-10-23T05:00:22;300.90;;;148.25;;
7440;SDS011;29616;51.950;8.572;2022-10-23T05:02:53;485.98;;;239.25;;
7440;SDS011;29616;51.950;8.572;2022-10-23T05:05:23;450.08;;;216.35;;
7440;SDS011;29616;51.950;8.572;2022-10-23T05:08:00;458.83;;;219.82;;
7440;SDS011;29616;51.950;8.572;2022-10-23T05:10:41;317.65;;;150.95;;
7440;SDS011;29616;51.950;8.572;2022-10-23T05:13:15;348.08;;;168.05;;
7440;SDS011;29616;51.950;8.572;2022-10-23T05:15:45;381.10;;;186.50;;
7440;SDS011;29616;51.950;8.572;2022-10-23T05:18:18;437.40;;;214.77;;
7440;SDS011;29616;51.950;8.572;2022-10-23T05:20:55;467.60;;;228.65;;
7440;SDS011;29616;51.950;8.572;2022-10-23T05:23:31;450.80;;;222.95;;
7440;SDS011;29616;51.950;8.572;2022-10-23T05:26:04;427.10;;;206.63;;
7440;SDS011;29616;51.950;8.572;2022-10-23T05:28:34;423.48;;;203.32;;
7440;SDS011;29616;51.950;8.572;2022-10-23T05:31:04;305.83;;;153.05;;
7440;SDS011;29616;51.950;8.572;2022-10-23T05:33:37;410.98;;;202.30;;
7440;SDS011;29616;51.950;8.572;2022-10-23T05:36:08;478.88;;;237.25;;
7440;SDS011;29616;51.950;8.572;2022-10-23T05:38:41;445.38;;;217.10;;
7440;SDS011;29616;51.950;8.572;2022-10-23T05:41:14;478.65;;;231.90;;
7440;SDS011;29616;51.950;8.572;2022-10-23T05:43:44;480.98;;;233.85;;
7440;SDS011;29616;51.950;8.572;2022-10-23T05:46:49;488.63;;;237.25;;
7440;SDS011;29616;51.950;8.572;2022-10-23T05:49:36;486.58;;;237.60;;
7440;SDS011;29616;51.950;8.572;2022-10-23T05:55:08;481.65;;;238.30;;
7440;SDS011;29616;51.950;8.572;2022-10-23T05:57:56;476.33;;;234.63;;
7440;SDS011;29616;51.950;8.572;2022-10-23T06:01:03;476.45;;;233.63;;
7440;SDS011;29616;51.950;8.572;2022-10-23T06:03:54;473.17;;;227.32;;
7440;SDS011;29616;51.950;8.572;2022-10-23T06:06:29;481.48;;;233.35;;
7440;SDS011;29616;51.950;8.572;2022-10-23T06:09:00;462.90;;;223.48;;
7440;SDS011;29616;51.950;8.572;2022-10-23T06:11:32;478.95;;;232.70;;
7440;SDS011;29616;51.950;8.572;2022-10-23T06:14:07;451.30;;;213.82;;
7440;SDS011;29616;51.950;8.572;2022-10-23T06:16:37;456.15;;;220.13;;
7440;SDS011;29616;51.950;8.572;2022-10-23T06:19:08;451.77;;;217.60;;
7440;SDS011;29616;51.950;8.572;2022-10-23T06:21:40;469.38;;;226.60;;
7440;SDS011;29616;51.950;8.572;2022-10-23T06:24:14;440.85;;;212.38;;
7440;SDS011;29616;51.950;8.572;2022-10-23T06:26:48;485.10;;;234.15;;
7440;SDS011;29616;51.950;8.572;2022-10-23T06:29:39;479.45;;;229.48;;
7440;SDS011;29616;51.950;8.572;2022-10-23T06:32:10;467.30;;;220.60;;
7440;SDS011;29616;51.950;8.572;2022-10-23T06:34:44;408.92;;;190.13;;
7440;SDS011;29616;51.950;8.572;2022-10-23T06:37:14;300.83;;;146.13;;
7440;SDS011;29616;51.950;8.572;2022-10-23T06:39:49;235.07;;;118.05;;
7440;SDS011;29616;51.950;8.572;2022-10-23T06:42:23;440.73;;;204.98;;
7440;SDS011;29616;51.950;8.572;2022-10-23T06:44:53;451.90;;;209.27;;
7440;SDS011;29616;51.950;8.572;2022-10-23T06:47:41;411.05;;;192.77;;
7440;SDS011;29616;51.950;8.572;2022-10-23T06:50:30;378.40;;;181.30;;
7440;SDS011;29616;51.950;8.572;2022-10-23T06:53:04;195.77;;;101.07;;
7440;SDS011;29616;51.950;8.572;2022-10-23T06:55:39;182.32;;;95.05;;
7440;SDS011;29616;51.950;8.572;2022-10-23T06:58:08;376.40;;;175.13;;
7440;SDS011;29616;51.950;8.572;2022-10-23T07:00:54;132.95;;;75.22;;
7440;SDS011;29616;51.950;8.572;2022-10-23T07:03:27;84.35;;;58.40;;
7440;SDS011;29616;51.950;8.572;2022-10-23T07:05:58;137.85;;;79.10;;
7440;SDS011;29616;51.950;8.572;2022-10-23T07:08:28;107.28;;;67.93;;
7440;SDS011;29616;51.950;8.572;2022-10-23T07:11:03;84.40;;;57.17;;
7440;SDS011;29616;51.950;8.572;2022-10-23T07:13:35;67.45;;;52.10;;
7440;SDS011;29616;51.950;8.572;2022-10-23T07:16:16;67.80;;;48.03;;
7440;SDS011;29616;51.950;8.572;2022-10-23T07:18:52;219.32;;;112.22;;
7440;SDS011;29616;51.950;8.572;2022-10-23T07:21:27;143.20;;;83.28;;
7440;SDS011;29616;51.950;8.572;2022-10-23T07:24:15;44.63;;;40.00;;
7440;SDS011;29616;51.950;8.572;2022-10-23T07:26:45;124.43;;;74.30;;
7440;SDS011;29616;51.950;8.572;2022-10-23T07:29:15;176.93;;;94.60;;
7440;SDS011;29616;51.950;8.572;2022-10-23T07:31:46;368.60;;;170.32;;
7440;SDS011;29616;51.950;8.572;2022-10-23T07:34:35;338.42;;;155.30;;
7440;SDS011;29616;51.950;8.572;2022-10-23T07:37:24;359.30;;;167.57;;
7440;SDS011;29616;51.950;8.572;2022-10-23T07:39:52;328.50;;;155.38;;
7440;SDS011;29616;51.950;8.572;2022-10-23T07:42:24;244.63;;;120.60;;
7440;SDS011;29616;51.950;8.572;2022-10-23T07:44:53;298.40;;;138.70;;
7440;SDS011;29616;51.950;8.572;2022-10-23T07:47:21;216.73;;;109.95;;
7440;SDS011;29616;51.950;8.572;2022-10-23T07:49:51;92.35;;;59.40;;
7440;SDS011;29616;51.950;8.572;2022-10-23T07:52:21;254.77;;;128.48;;
7440;SDS011;29616;51.950;8.572;2022-10-23T07:55:18;97.65;;;65.30;;
7440;SDS011;29616;51.950;8.572;2022-10-23T07:57:53;296.08;;;143.80;;
7440;SDS011;29616;51.950;8.572;2022-10-23T08:00:40;121.38;;;73.95;;
7440;SDS011;29616;51.950;8.572;2022-10-23T08:03:23;127.68;;;75.80;;
7440;SDS011;29616;51.950;8.572;2022-10-23T08:05:53;366.83;;;161.07;;
7440;SDS011;29616;51.950;8.572;2022-10-23T08:08:22;400.40;;;177.27;;
7440;SDS011;29616;51.950;8.572;2022-10-23T08:11:00;440.27;;;189.00;;
7440;SDS011;29616;51.950;8.572;2022-10-23T08:13:35;405.88;;;175.52;;
7440;SDS011;29616;51.950;8.572;2022-10-23T08:16:05;394.30;;;168.27;;
7440;SDS011;29616;51.950;8.572;2022-10-23T08:19:04;188.88;;;99.07;;
7440;SDS011;29616;51.950;8.572;2022-10-23T08:21:38;73.97;;;56.58;;
7440;SDS011;29616;51.950;8.572;2022-10-23T08:24:10;293.23;;;133.40;;
7440;SDS011;29616;51.950;8.572;2022-10-23T08:26:43;306.58;;;136.32;;
7440;SDS011;29616;51.950;8.572;2022-10-23T08:29:14;257.92;;;120.65;;
7440;SDS011;29616;51.950;8.572;2022-10-23T08:31:45;134.10;;;79.25;;
7440;SDS011;29616;51.950;8.572;2022-10-23T08:34:23;111.53;;;71.85;;
7440;SDS011;29616;51.950;8.572;2022-10-23T08:36:53;297.73;;;133.70;;
7440;SDS011;29616;51.950;8.572;2022-10-23T08:39:22;262.85;;;122.78;;
7440;SDS011;29616;51.950;8.572;2022-10-23T08:42:02;248.77;;;118.82;;
7440;SDS011;29616;51.950;8.572;2022-10-23T08:44:35;211.95;;;105.50;;
7440;SDS011;29616;51.950;8.572;2022-10-23T08:47:17;212.27;;;107.00;;
7440;SDS011;29616;51.950;8.572;2022-10-23T08:49:54;227.10;;;112.20;;
7440;SDS011;29616;51.950;8.572;2022-10-23T08:52:29;242.25;;;116.47;;
7440;SDS011;29616;51.950;8.572;2022-10-23T08:55:08;220.90;;;109.53;;
7440;SDS011;29616;51.950;8.572;2022-10-23T08:57:46;65.87;;;43.03;;
7440;SDS011;29616;51.950;8.572;2022-10-23T09:00:25;207.05;;;103.53;;
7440;SDS011;29616;51.950;8.572;2022-10-23T09:02:54;215.80;;;107.10;;
7440;SDS011;29616;51.950;8.572;2022-10-23T09:05:26;205.43;;;103.82;;
7440;SDS011;29616;51.950;8.572;2022-10-23T09:08:00;247.35;;;115.80;;
7440;SDS011;29616;51.950;8.572;2022-10-23T09:13:36;162.13;;;93.18;;
7440;SDS011;29616;51.950;8.572;2022-10-23T09:16:26;35.83;;;31.95;;
7440;SDS011;29616;51.950;8.572;2022-10-23T09:19:11;15.52;;;14.07;;
7440;SDS011;29616;51.950;8.572;2022-10-23T09:21:44;18.98;;;16.83;;
7440;SDS011;29616;51.950;8.572;2022-10-23T09:24:16;4.25;;;2.70;;
7440;SDS011;29616;51.950;8.572;2022-10-23T09:26:47;6.93;;;3.10;;
7440;SDS011;29616;51.950;8.572;2022-10-23T09:29:20;9.57;;;3.87;;
7440;SDS011;29616;51.950;8.572;2022-10-23T09:31:54;12.18;;;5.25;;
7440;SDS011;29616;51.950;8.572;2022-10-23T09:34:27;7.07;;;3.45;;
7440;SDS011;29616;51.950;8.572;2022-10-23T09:36:59;14.80;;;7.55;;
7440;SDS011;29616;51.950;8.572;2022-10-23T09:39:29;7.53;;;6.10;;
7440;SDS011;29616;51.950;8.572;2022-10-23T09:42:00;213.48;;;101.22;;
7440;SDS011;29616;51.950;8.572;2022-10-23T09:44:49;48.22;;;42.83;;
7440;SDS011;29616;51.950;8.572;2022-10-23T09:47:23;51.63;;;41.05;;
7440;SDS011;29616;51.950;8.572;2022-10-23T09:49:55;118.90;;;75.53;;
7440;SDS011;29616;51.950;8.572;2022-10-23T09:52:27;78.85;;;52.35;;
7440;SDS011;29616;51.950;8.572;2022-10-23T09:55:02;12.68;;;4.78;;
7440;SDS011;29616;51.950;8.572;2022-10-23T09:57:47;8.32;;;2.05;;
7440;SDS011;29616;51.950;8.572;2022-10-23T10:00:19;5.15;;;3.25;;
7440;SDS011;29616;51.950;8.572;2022-10-23T10:02:55;8.95;;;8.32;;
7440;SDS011;29616;51.950;8.572;2022-10-23T10:05:58;32.15;;;28.98;;
7440;SDS011;29616;51.950;8.572;2022-10-23T10:08:31;84.57;;;59.88;;
7440;SDS011;29616;51.950;8.572;2022-10-23T10:11:09;22.45;;;16.45;;
7440;SDS011;29616;51.950;8.572;2022-10-23T10:13:53;5.82;;;4.13;;
7440;SDS011;29616;51.950;8.572;2022-10-23T10:16:39;79.25;;;56.83;;
7440;SDS011;29616;51.950;8.572;2022-10-23T10:19:20;124.80;;;76.95;;
7440;SDS011;29616;51.950;8.572;2022-10-23T10:22:00;20.55;;;15.57;;
7440;SDS011;29616;51.950;8.572;2022-10-23T10:24:40;43.38;;;39.30;;
7440;SDS011;29616;51.950;8.572;2022-10-23T10:27:20;27.65;;;25.02;;
7440;SDS011;29616;51.950;8.572;2022-10-23T10:30:07;48.22;;;43.05;;
7440;SDS011;29616;51.950;8.572;2022-10-23T10:32:44;38.10;;;34.03;;
7440;SDS011;29616;51.950;8.572;2022-10-23T10:35:24;40.30;;;36.30;;
7440;SDS011;29616;51.950;8.572;2022-10-23T10:38:13;11.20;;;9.20;;
7440;SDS011;29616;51.950;8.572;2022-10-23T10:41:08;118.63;;;73.65;;
7440;SDS011;29616;51.950;8.572;2022-10-23T10:44:00;54.88;;;48.80;;
7440;SDS011;29616;51.950;8.572;2022-10-23T10:47:09;85.72;;;60.03;;
7440;SDS011;29616;51.950;8.572;2022-10-23T10:49:51;53.10;;;31.42;;
7440;SDS011;29616;51.950;8.572;2022-10-23T10:52:59;7.65;;;7.07;;
7440;SDS011;29616;51.950;8.572;2022-10-23T10:55:38;29.15;;;26.02;;
7440;SDS011;29616;51.950;8.572;2022-10-23T10:58:12;67.90;;;44.72;;
7440;SDS011;29616;51.950;8.572;2022-10-23T11:00:49;119.38;;;68.75;;
7440;SDS011;29616;51.950;8.572;2022-10-23T11:03:26;173.88;;;78.78;;
7440;SDS011;29616;51.950;8.572;2022-10-23T11:06:08;228.07;;;110.80;;
7440;SDS011;29616;51.950;8.572;2022-10-23T11:08:45;206.38;;;105.20;;
7440;SDS011;29616;51.950;8.572;2022-10-23T11:11:35;205.52;;;103.72;;
7440;SDS011;29616;51.950;8.572;2022-10-23T11:14:13;214.50;;;107.07;;
7440;SDS011;29616;51.950;8.572;2022-10-23T11:16:44;202.82;;;103.38;;
7440;SDS011;29616;51.950;8.572;2022-10-23T11:19:20;252.63;;;117.32;;
7440;SDS011;29616;51.950;8.572;2022-10-23T11:21:56;321.30;;;134.63;;
7440;SDS011;29616;51.950;8.572;2022-10-23T11:24:45;287.08;;;126.40;;
7440;SDS011;29616;51.950;8.572;2022-10-23T11:27:41;213.52;;;106.07;;
7440;SDS011;29616;51.950;8.572;2022-10-23T11:30:33;309.98;;;133.02;;
7440;SDS011;29616;51.950;8.572;2022-10-23T11:36:18;103.47;;;69.03;;
7440;SDS011;29616;51.950;8.572;2022-10-23T11:39:05;42.20;;;32.40;;
7440;SDS011;29616;51.950;8.572;2022-10-23T11:41:48;35.83;;;27.42;;
7440;SDS011;29616;51.950;8.572;2022-10-23T11:44:25;139.43;;;88.57;;
7440;SDS011;29616;51.950;8.572;2022-10-23T11:47:24;166.52;;;92.47;;
7440;SDS011;29616;51.950;8.572;2022-10-23T11:50:22;252.30;;;121.60;;
7440;SDS011;29616;51.950;8.572;2022-10-23T11:53:00;389.38;;;158.02;;
7440;SDS011;29616;51.950;8.572;2022-10-23T11:55:55;267.45;;;121.38;;
7440;SDS011;29616;51.950;8.572;2022-10-23T11:58:38;166.45;;;88.93;;
7440;SDS011;29616;51.950;8.572;2022-10-23T12:04:15;82.93;;;58.67;;
7440;SDS011;29616;51.950;8.572;2022-10-23T12:06:50;8.88;;;5.85;;
7440;SDS011;29616;51.950;8.572;2022-10-23T12:12:03;196.02;;;97.10;;
7440;SDS011;29616;51.950;8.572;2022-10-23T12:14:44;229.90;;;107.40;;
7440;SDS011;29616;51.950;8.572;2022-10-23T12:17:19;283.52;;;126.45;;
7440;SDS011;29616;51.950;8.572;2022-10-23T12:20:16;404.80;;;164.85;;
7440;SDS011;29616;51.950;8.572;2022-10-23T12:22:57;521.55;;;208.10;;
7440;SDS011;29616;51.950;8.572;2022-10-23T12:28:58;430.00;;;171.25;;
7440;SDS011;29616;51.950;8.572;2022-10-23T12:31:42;420.90;;;167.45;;
7440;SDS011;29616;51.950;8.572;2022-10-23T12:34:24;183.02;;;95.75;;
7440;SDS011;29616;51.950;8.572;2022-10-23T12:37:13;434.35;;;171.23;;
7440;SDS011;29616;51.950;8.572;2022-10-23T12:40:18;397.92;;;158.65;;
7440;SDS011;29616;51.950;8.572;2022-10-23T12:42:49;426.15;;;168.27;;
7440;SDS011;29616;51.950;8.572;2022-10-23T12:45:22;403.92;;;160.38;;
7440;SDS011;29616;51.950;8.572;2022-10-23T12:47:56;433.45;;;172.48;;
7440;SDS011;29616;51.950;8.572;2022-10-23T12:50:27;406.88;;;164.05;;
7440;SDS011;29616;51.950;8.572;2022-10-23T12:52:59;401.85;;;160.50;;
7440;SDS011;29616;51.950;8.572;2022-10-23T12:55:44;420.23;;;166.35;;
7440;SDS011;29616;51.950;8.572;2022-10-23T12:58:20;422.25;;;167.45;;
7440;SDS011;29616;51.950;8.572;2022-10-23T13:00:56;402.80;;;163.10;;
7440;SDS011;29616;51.950;8.572;2022-10-23T13:03:29;416.65;;;166.57;;
7440;SDS011;29616;51.950;8.572;2022-10-23T13:06:01;400.55;;;159.80;;
7440;SDS011;29616;51.950;8.572;2022-10-23T13:08:33;406.50;;;160.40;;
7440;SDS011;29616;51.950;8.572;2022-10-23T13:11:24;433.35;;;170.23;;
7440;SDS011;29616;51.950;8.572;2022-10-23T13:13:57;396.77;;;159.43;;
7440;SDS011;29616;51.950;8.572;2022-10-23T13:16:28;414.27;;;162.63;;
7440;SDS011;29616;51.950;8.572;2022-10-23T13:18:57;428.80;;;170.90;;
7440;SDS011;29616;51.950;8.572;2022-10-23T13:21:26;427.13;;;170.45;;
7440;SDS011;29616;51.950;8.572;2022-10-23T13:23:58;321.23;;;138.73;;
7440;SDS011;29616;51.950;8.572;2022-10-23T13:26:30;265.67;;;122.18;;
7440;SDS011;29616;51.950;8.572;2022-10-23T13:29:01;407.25;;;162.00;;
7440;SDS011;29616;51.950;8.572;2022-10-23T13:31:42;411.95;;;163.10;;
7440;SDS011;29616;51.950;8.572;2022-10-23T13:34:15;443.20;;;174.93;;
7440;SDS011;29616;51.950;8.572;2022-10-23T13:36:53;482.40;;;192.82;;
7440;SDS011;29616;51.950;8.572;2022-10-23T13:39:30;489.42;;;197.13;;
7440;SDS011;29616;51.950;8.572;2022-10-23T13:44:40;471.27;;;187.02;;
7440;SDS011;29616;51.950;8.572;2022-10-23T13:47:10;485.27;;;191.82;;
7440;SDS011;29616;51.950;8.572;2022-10-23T13:49:41;494.15;;;195.38;;
7440;SDS011;29616;51.950;8.572;2022-10-23T13:52:10;423.95;;;167.35;;
7440;SDS011;29616;51.950;8.572;2022-10-23T13:54:46;444.70;;;173.90;;
7440;SDS011;29616;51.950;8.572;2022-10-23T13:57:15;442.38;;;173.15;;
7440;SDS011;29616;51.950;8.572;2022-10-23T13:59:45;425.15;;;165.20;;
7440;SDS011;29616;51.950;8.572;2022-10-23T14:02:17;430.60;;;168.55;;
7440;SDS011;29616;51.950;8.572;2022-10-23T14:04:49;445.38;;;172.93;;
7440;SDS011;29616;51.950;8.572;2022-10-23T14:07:18;451.20;;;177.00;;
7440;SDS011;29616;51.950;8.572;2022-10-23T14:09:49;439.95;;;171.73;;
7440;SDS011;29616;51.950;8.572;2022-10-23T14:12:19;430.77;;;167.65;;
7440;SDS011;29616;51.950;8.572;2022-10-23T14:14:49;471.27;;;183.63;;
7440;SDS011;29616;51.950;8.572;2022-10-23T14:17:19;467.88;;;181.68;;
7440;SDS011;29616;51.950;8.572;2022-10-23T14:19:51;448.30;;;173.50;;
7440;SDS011;29616;51.950;8.572;2022-10-23T14:22:21;451.85;;;174.73;;
7440;SDS011;29616;51.950;8.572;2022-10-23T14:24:51;474.00;;;185.15;;
7440;SDS011;29616;51.950;8.572;2022-10-23T14:27:19;492.90;;;193.07;;
7440;SDS011;29616;51.950;8.572;2022-10-23T14:29:47;495.13;;;193.18;;
7440;SDS011;29616;51.950;8.572;2022-10-23T14:32:17;476.83;;;186.43;;
7440;SDS011;29616;51.950;8.572;2022-10-23T14:34:48;561.47;;;225.30;;
7440;SDS011;29616;51.950;8.572;2022-10-23T14:37:21;491.67;;;192.07;;
7440;SDS011;29616;51.950;8.572;2022-10-23T14:39:52;506.95;;;200.38;;
7440;SDS011;29616;51.950;8.572;2022-10-23T14:42:20;504.25;;;199.23;;
7440;SDS011;29616;51.950;8.572;2022-10-23T14:44:49;546.10;;;217.95;;
7440;SDS011;29616;51.950;8.572;2022-10-23T14:47:19;538.33;;;214.88;;
7440;SDS011;29616;51.950;8.572;2022-10-23T14:49:50;614.70;;;245.65;;
7440;SDS011;29616;51.950;8.572;2022-10-23T14:52:22;579.50;;;232.63;;
7440;SDS011;29616;51.950;8.572;2022-10-23T14:54:52;596.70;;;239.38;;
7440;SDS011;29616;51.950;8.572;2022-10-23T14:57:20;567.58;;;229.07;;
7440;SDS011;29616;51.950;8.572;2022-10-23T14:59:49;592.45;;;239.05;;
7440;SDS011;29616;51.950;8.572;2022-10-23T15:02:17;547.50;;;222.60;;
7440;SDS011;29616;51.950;8.572;2022-10-23T15:04:45;577.33;;;234.48;;
7440;SDS011;29616;51.950;8.572;2022-10-23T15:07:17;576.55;;;235.50;;
7440;SDS011;29616;51.950;8.572;2022-10-23T15:09:46;619.63;;;252.90;;
7440;SDS011;29616;51.950;8.572;2022-10-23T15:12:17;518.13;;;208.02;;
7440;SDS011;29616;51.950;8.572;2022-10-23T15:14:46;548.35;;;223.35;;
7440;SDS011;29616;51.950;8.572;2022-10-23T15:17:16;556.47;;;225.65;;
7440;SDS011;29616;51.950;8.572;2022-10-23T15:19:46;570.53;;;236.30;;
7440;SDS011;29616;51.950;8.572;2022-10-23T15:22:14;582.83;;;240.35;;
7440;SDS011;29616;51.950;8.572;2022-10-23T15:24:46;549.17;;;224.20;;
7440;SDS011;29616;51.950;8.572;2022-10-23T15:27:14;532.20;;;216.73;;